Impacts METAR Board
IDs:

KBAZ - New Braunfels Muni, TX, US

Updated at: 2300 UTC 18 Oct 2019
Potential Impact None Slight Moderate High
Time 18/11Z 18/12Z 18/13Z 18/14Z 18/15Z 18/16Z 18/17Z 18/18Z 18/19Z 18/20Z 18/21Z 18/22Z 18/23Z
Temp52 51 52 58 62 68 73 76 79 80 82 84 83
Dewpt47 47 48 50 50 49 44 46 51 52 54 53 54
Altim29.89 29.88 29.88 29.88 29.90 29.88 29.86 29.83 29.79 29.75 29.74 29.73 29.71
VIS10 10 10 10 10 10 10 10 10 10 10 10 10
CIG-- -- -- -- -- -- -- -- -- -- -- -- --
CoverCLRCLRCLRCLRCLRCLRCLRCLRCLRCLRCLRCLRCLR
FltCatVFRVFRVFRVFRVFRVFRVFRVFRVFRVFRVFRVFRVFR
WX--------------------------
WDir35010310207090140001400220160
WSpd4 4 4 4 3 4 6 3 0 7 3 10 10
WGst-- -- -- -- -- -- -- -- -- -- -- -- --
Raw hourly METARs
KBAZ 181051Z AUTO 35004KT 10SM CLR 11/08 A2989 RMK AO2 SLP116 T01110083
KBAZ 181151Z 01004KT 10SM CLR 11/08 A2988 RMK AO2 SLP114 T01060083 10128 20106 56004
KBAZ 181251Z 31004KT 10SM CLR 11/09 A2988 RMK AO2 SLP115 T01110089
KBAZ 181351Z 02004KT 10SM CLR 14/10 A2988 RMK AO2 SLP116 T01440100
KBAZ 181451Z 07003KT 10SM CLR 17/10 A2990 RMK AO2 SLP120 T01670100 53006
KBAZ 181551Z 09004KT 10SM CLR 20/09 A2988 RMK AO2 SLP112 T02000094
KBAZ 181651Z 14006KT 10SM CLR 23/07 A2986 RMK AO2 SLP106 T02280067
KBAZ 181751Z VRB03KT 10SM CLR 24/08 A2983 RMK AO2 SLP096 T02440078 10244 20106 58022
KBAZ 181851Z 00000KT 10SM CLR 26/11 A2979 RMK AO2 SLP083 T02610106
KBAZ 181951Z 14007KT 10SM CLR 27/11 A2975 RMK AO2 SLP069 T02670111
KBAZ 182051Z VRB03KT 10SM CLR 28/12 A2974 RMK AO2 SLP064 T02780122 56031
KBAZ 182151Z 22010KT 10SM CLR 29/12 A2973 RMK AO2 SLP060 T02890117
KBAZ 182251Z 16010KT 10SM CLR 28/12 A2971 RMK AO2 SLP056 T02830122